sensor_id;sensor_type;location;lat;lon;timestamp;pressure;altitude;pressure_sealevel;temperature;humidity
24280;BME280;12395;42.808;23.408;2022-11-20T00:01:16;94275.28;;;17.29;68.70
24280;BME280;12395;42.808;23.408;2022-11-20T00:03:42;94296.72;;;17.39;69.32
24280;BME280;12395;42.808;23.408;2022-11-20T00:06:11;94287.63;;;17.30;73.34
24280;BME280;12395;42.808;23.408;2022-11-20T00:08:37;94291.28;;;17.09;74.98
24280;BME280;12395;42.808;23.408;2022-11-20T00:11:13;94280.53;;;16.98;73.89
24280;BME280;12395;42.808;23.408;2022-11-20T00:13:39;94306.00;;;17.06;74.63
24280;BME280;12395;42.808;23.408;2022-11-20T00:16:07;94279.47;;;16.94;76.13
24280;BME280;12395;42.808;23.408;2022-11-20T00:18:34;94262.28;;;16.80;76.73
24280;BME280;12395;42.808;23.408;2022-11-20T00:21:04;94282.84;;;16.75;77.46
24280;BME280;12395;42.808;23.408;2022-11-20T00:23:29;94260.31;;;16.66;77.14
24280;BME280;12395;42.808;23.408;2022-11-20T00:25:55;94271.00;;;16.66;77.02
24280;BME280;12395;42.808;23.408;2022-11-20T00:28:20;94259.78;;;16.64;75.87
24280;BME280;12395;42.808;23.408;2022-11-20T00:30:46;94275.03;;;16.68;77.21
24280;BME280;12395;42.808;23.408;2022-11-20T00:33:11;94261.66;;;16.63;76.31
24280;BME280;12395;42.808;23.408;2022-11-20T00:35:36;94261.13;;;16.66;76.75
24280;BME280;12395;42.808;23.408;2022-11-20T00:38:02;94269.94;;;16.62;73.97
24280;BME280;12395;42.808;23.408;2022-11-20T00:40:27;94267.56;;;16.70;72.82
24280;BME280;12395;42.808;23.408;2022-11-20T00:42:53;94274.91;;;16.95;69.69
24280;BME280;12395;42.808;23.408;2022-11-20T00:45:18;94264.53;;;17.14;69.36
24280;BME280;12395;42.808;23.408;2022-11-20T00:47:43;94254.09;;;17.12;68.40
24280;BME280;12395;42.808;23.408;2022-11-20T00:50:09;94256.81;;;17.27;67.50
24280;BME280;12395;42.808;23.408;2022-11-20T00:52:34;94268.88;;;17.30;68.56
24280;BME280;12395;42.808;23.408;2022-11-20T00:54:59;94287.09;;;17.33;69.49
24280;BME280;12395;42.808;23.408;2022-11-20T00:57:25;94280.91;;;17.27;70.31
24280;BME280;12395;42.808;23.408;2022-11-20T00:59:50;94280.09;;;17.22;69.89
24280;BME280;12395;42.808;23.408;2022-11-20T01:02:15;94290.53;;;17.18;70.75
24280;BME280;12395;42.808;23.408;2022-11-20T01:04:42;94273.38;;;17.14;71.58
24280;BME280;12395;42.808;23.408;2022-11-20T01:07:07;94264.00;;;17.12;71.63
24280;BME280;12395;42.808;23.408;2022-11-20T01:09:33;94281.13;;;17.16;71.98
24280;BME280;12395;42.808;23.408;2022-11-20T01:11:58;94285.91;;;17.09;73.49
24280;BME280;12395;42.808;23.408;2022-11-20T01:14:24;94278.47;;;17.11;71.19
24280;BME280;12395;42.808;23.408;2022-11-20T01:16:50;94285.91;;;17.09;72.09
24280;BME280;12395;42.808;23.408;2022-11-20T01:19:21;94263.19;;;17.06;71.78
24280;BME280;12395;42.808;23.408;2022-11-20T01:21:52;94276.34;;;17.23;69.76
24280;BME280;12395;42.808;23.408;2022-11-20T01:24:20;94280.91;;;17.32;70.21
24280;BME280;12395;42.808;23.408;2022-11-20T01:26:47;94271.56;;;17.30;70.27
24280;BME280;12395;42.808;23.408;2022-11-20T01:29:21;94272.88;;;17.27;70.07
24280;BME280;12395;42.808;23.408;2022-11-20T01:31:47;94268.63;;;17.31;69.67
24280;BME280;12395;42.808;23.408;2022-11-20T01:34:15;94252.28;;;17.28;70.48
24280;BME280;12395;42.808;23.408;2022-11-20T01:36:42;94247.19;;;17.31;69.86
24280;BME280;12395;42.808;23.408;2022-11-20T01:39:22;94242.38;;;17.33;70.35
24280;BME280;12395;42.808;23.408;2022-11-20T01:41:48;94220.66;;;17.25;70.18
24280;BME280;12395;42.808;23.408;2022-11-20T01:44:55;94234.63;;;17.32;70.34
24280;BME280;12395;42.808;23.408;2022-11-20T01:47:43;94238.88;;;17.23;72.19
24280;BME280;12395;42.808;23.408;2022-11-20T01:52:49;94219.56;;;17.06;71.27
24280;BME280;12395;42.808;23.408;2022-11-20T01:55:24;94227.56;;;17.01;74.02
24280;BME280;12395;42.808;23.408;2022-11-20T01:57:51;94213.38;;;16.95;73.65
24280;BME280;12395;42.808;23.408;2022-11-20T02:00:18;94232.13;;;17.05;74.58
24280;BME280;12395;42.808;23.408;2022-11-20T02:02:49;94234.00;;;17.05;74.54
24280;BME280;12395;42.808;23.408;2022-11-20T02:05:25;94217.41;;;16.98;74.36
24280;BME280;12395;42.808;23.408;2022-11-20T02:07:52;94225.44;;;16.98;75.27
24280;BME280;12395;42.808;23.408;2022-11-20T02:10:19;94220.81;;;16.83;75.37
24280;BME280;12395;42.808;23.408;2022-11-20T02:12:45;94205.03;;;16.91;75.15
24280;BME280;12395;42.808;23.408;2022-11-20T02:15:29;94208.81;;;16.90;72.83
24280;BME280;12395;42.808;23.408;2022-11-20T02:17:55;94209.63;;;17.01;73.08
24280;BME280;12395;42.808;23.408;2022-11-20T02:20:20;94213.63;;;16.93;73.93
24280;BME280;12395;42.808;23.408;2022-11-20T02:22:57;94204.53;;;16.94;74.36
24280;BME280;12395;42.808;23.408;2022-11-20T02:25:25;94195.38;;;16.75;74.80
24280;BME280;12395;42.808;23.408;2022-11-20T02:27:52;94223.53;;;16.93;75.10
24280;BME280;12395;42.808;23.408;2022-11-20T02:30:17;94195.97;;;16.92;74.13
24280;BME280;12395;42.808;23.408;2022-11-20T02:32:43;94223.00;;;17.01;70.52
24280;BME280;12395;42.808;23.408;2022-11-20T02:35:09;94235.63;;;17.11;73.44
24280;BME280;12395;42.808;23.408;2022-11-20T02:37:38;94216.88;;;17.06;71.84
24280;BME280;12395;42.808;23.408;2022-11-20T02:40:05;94239.38;;;17.10;72.63
24280;BME280;12395;42.808;23.408;2022-11-20T02:42:31;94241.47;;;16.98;73.53
24280;BME280;12395;42.808;23.408;2022-11-20T02:44:56;94244.19;;;17.08;73.11
24280;BME280;12395;42.808;23.408;2022-11-20T02:47:22;94231.31;;;17.00;72.60
24280;BME280;12395;42.808;23.408;2022-11-20T02:49:47;94234.28;;;17.08;73.09
24280;BME280;12395;42.808;23.408;2022-11-20T02:52:12;94244.13;;;16.92;72.53
24280;BME280;12395;42.808;23.408;2022-11-20T02:54:38;94248.19;;;17.05;69.71
24280;BME280;12395;42.808;23.408;2022-11-20T02:57:03;94267.28;;;17.34;66.07
24280;BME280;12395;42.808;23.408;2022-11-20T02:59:28;94273.78;;;17.53;65.48
24280;BME280;12395;42.808;23.408;2022-11-20T03:01:54;94273.50;;;17.54;67.43
24280;BME280;12395;42.808;23.408;2022-11-20T03:04:19;94263.31;;;17.51;67.84
24280;BME280;12395;42.808;23.408;2022-11-20T03:06:45;94292.53;;;17.58;67.48
24280;BME280;12395;42.808;23.408;2022-11-20T03:09:10;94278.03;;;17.49;68.54
24280;BME280;12395;42.808;23.408;2022-11-20T03:11:35;94272.13;;;17.47;69.96
24280;BME280;12395;42.808;23.408;2022-11-20T03:14:03;94256.00;;;17.27;69.06
24280;BME280;12395;42.808;23.408;2022-11-20T03:16:28;94296.47;;;17.45;68.17
24280;BME280;12395;42.808;23.408;2022-11-20T03:18:53;94296.53;;;17.50;69.25
24280;BME280;12395;42.808;23.408;2022-11-20T03:21:19;94308.84;;;17.51;69.98
24280;BME280;12395;42.808;23.408;2022-11-20T03:23:44;94290.59;;;17.38;69.98
24280;BME280;12395;42.808;23.408;2022-11-20T03:26:15;94294.66;;;17.51;69.75
24280;BME280;12395;42.808;23.408;2022-11-20T03:28:46;94313.63;;;17.49;70.92
24280;BME280;12395;42.808;23.408;2022-11-20T03:31:13;94297.81;;;17.43;70.51
24280;BME280;12395;42.808;23.408;2022-11-20T03:33:41;94316.00;;;17.41;71.30
24280;BME280;12395;42.808;23.408;2022-11-20T03:36:09;94323.25;;;17.35;72.47
24280;BME280;12395;42.808;23.408;2022-11-20T03:38:36;94327.25;;;17.33;73.20
24280;BME280;12395;42.808;23.408;2022-11-20T03:41:07;94304.69;;;17.14;73.59
24280;BME280;12395;42.808;23.408;2022-11-20T03:43:33;94325.59;;;17.22;74.26
24280;BME280;12395;42.808;23.408;2022-11-20T03:45:59;94319.44;;;17.16;74.48
24280;BME280;12395;42.808;23.408;2022-11-20T03:48:24;94308.94;;;17.05;73.87
24280;BME280;12395;42.808;23.408;2022-11-20T03:50:51;94320.47;;;17.10;73.00
24280;BME280;12395;42.808;23.408;2022-11-20T03:53:19;94311.44;;;17.21;72.27
24280;BME280;12395;42.808;23.408;2022-11-20T03:55:49;94309.00;;;17.20;72.87
24280;BME280;12395;42.808;23.408;2022-11-20T03:58:15;94315.16;;;17.20;72.74
24280;BME280;12395;42.808;23.408;2022-11-20T04:00:40;94296.94;;;17.12;72.67
24280;BME280;12395;42.808;23.408;2022-11-20T04:03:06;94299.59;;;17.17;73.52
24280;BME280;12395;42.808;23.408;2022-11-20T04:05:33;94294.53;;;17.11;73.51
24280;BME280;12395;42.808;23.408;2022-11-20T04:07:58;94293.94;;;17.04;74.27
24280;BME280;12395;42.808;23.408;2022-11-20T04:10:24;94286.47;;;17.06;74.10
24280;BME280;12395;42.808;23.408;2022-11-20T04:12:49;94306.00;;;17.11;74.28
24280;BME280;12395;42.808;23.408;2022-11-20T04:15:15;94309.50;;;17.12;74.66
24280;BME280;12395;42.808;23.408;2022-11-20T04:17:40;94292.38;;;17.13;74.24
24280;BME280;12395;42.808;23.408;2022-11-20T04:20:06;94293.41;;;17.07;74.75
24280;BME280;12395;42.808;23.408;2022-11-20T04:22:31;94261.56;;;17.05;73.91
24280;BME280;12395;42.808;23.408;2022-11-20T04:24:57;94268.28;;;17.13;74.14
24280;BME280;12395;42.808;23.408;2022-11-20T04:27:22;94274.69;;;17.07;74.66
24280;BME280;12395;42.808;23.408;2022-11-20T04:29:48;94255.88;;;16.91;75.29
24280;BME280;12395;42.808;23.408;2022-11-20T04:32:13;94245.69;;;16.83;75.63
24280;BME280;12395;42.808;23.408;2022-11-20T04:34:38;94240.09;;;16.85;77.26
24280;BME280;12395;42.808;23.408;2022-11-20T04:37:04;94251.75;;;16.64;76.67
24280;BME280;12395;42.808;23.408;2022-11-20T04:39:29;94265.19;;;16.74;72.41
24280;BME280;12395;42.808;23.408;2022-11-20T04:41:54;94261.78;;;16.88;70.50
24280;BME280;12395;42.808;23.408;2022-11-20T04:44:38;94249.53;;;17.08;70.30
24280;BME280;12395;42.808;23.408;2022-11-20T04:47:04;94249.53;;;17.08;69.34
24280;BME280;12395;42.808;23.408;2022-11-20T04:49:29;94250.09;;;17.15;67.29
24280;BME280;12395;42.808;23.408;2022-11-20T04:51:57;94248.25;;;17.30;63.62
24280;BME280;12395;42.808;23.408;2022-11-20T04:54:22;94256.38;;;17.50;63.21
24280;BME280;12395;42.808;23.408;2022-11-20T04:56:48;94238.09;;;17.47;64.64
24280;BME280;12395;42.808;23.408;2022-11-20T04:59:13;94254.97;;;17.48;66.34
24280;BME280;12395;42.808;23.408;2022-11-20T05:01:39;94261.13;;;17.43;67.30
24280;BME280;12395;42.808;23.408;2022-11-20T05:04:04;94276.41;;;17.38;66.99
24280;BME280;12395;42.808;23.408;2022-11-20T05:06:32;94260.31;;;17.38;67.64
24280;BME280;12395;42.808;23.408;2022-11-20T05:08:58;94242.09;;;17.25;67.21
24280;BME280;12395;42.808;23.408;2022-11-20T05:11:23;94252.28;;;17.38;65.29
24280;BME280;12395;42.808;23.408;2022-11-20T05:13:50;94243.19;;;17.39;66.11
24280;BME280;12395;42.808;23.408;2022-11-20T05:16:18;94247.50;;;17.45;66.73
24280;BME280;12395;42.808;23.408;2022-11-20T05:18:44;94223.63;;;17.43;65.50
24280;BME280;12395;42.808;23.408;2022-11-20T05:21:10;94226.63;;;17.52;65.72
24280;BME280;12395;42.808;23.408;2022-11-20T05:23:36;94224.72;;;17.47;65.50
24280;BME280;12395;42.808;23.408;2022-11-20T05:26:03;94211.59;;;17.46;65.60
24280;BME280;12395;42.808;23.408;2022-11-20T05:28:30;94224.44;;;17.44;65.92
24280;BME280;12395;42.808;23.408;2022-11-20T05:31:10;94245.84;;;17.39;66.61
24280;BME280;12395;42.808;23.408;2022-11-20T05:33:36;94246.38;;;17.31;67.71
24280;BME280;12395;42.808;23.408;2022-11-20T05:36:05;94251.47;;;17.27;68.25
24280;BME280;12395;42.808;23.408;2022-11-20T05:38:30;94242.59;;;17.22;68.96
24280;BME280;12395;42.808;23.408;2022-11-20T05:41:03;94240.75;;;17.22;69.38
24280;BME280;12395;42.808;23.408;2022-11-20T05:43:31;94248.47;;;17.14;70.81
24280;BME280;12395;42.808;23.408;2022-11-20T05:45:57;94253.03;;;17.08;71.09
24280;BME280;12395;42.808;23.408;2022-11-20T05:48:22;94235.06;;;17.04;71.36
24280;BME280;12395;42.808;23.408;2022-11-20T05:50:48;94249.25;;;17.04;71.07
24280;BME280;12395;42.808;23.408;2022-11-20T05:53:13;94240.94;;;17.01;71.56
24280;BME280;12395;42.808;23.408;2022-11-20T05:55:39;94233.44;;;16.92;72.17
24280;BME280;12395;42.808;23.408;2022-11-20T05:58:04;94248.66;;;16.92;72.61
24280;BME280;12395;42.808;23.408;2022-11-20T06:00:29;94246.81;;;16.92;73.90
24280;BME280;12395;42.808;23.408;2022-11-20T06:02:55;94235.28;;;16.92;74.01
24280;BME280;12395;42.808;23.408;2022-11-20T06:05:20;94236.63;;;16.94;73.20
24280;BME280;12395;42.808;23.408;2022-11-20T06:07:45;94231.53;;;16.88;73.79
24280;BME280;12395;42.808;23.408;2022-11-20T06:10:11;94229.38;;;16.80;72.96
24280;BME280;12395;42.808;23.408;2022-11-20T06:12:36;94217.34;;;16.82;72.25
24280;BME280;12395;42.808;23.408;2022-11-20T06:15:02;94240.41;;;16.93;71.82
24280;BME280;12395;42.808;23.408;2022-11-20T06:17:28;94231.56;;;16.98;70.89
24280;BME280;12395;42.808;23.408;2022-11-20T06:19:53;94244.69;;;17.05;70.37
24280;BME280;12395;42.808;23.408;2022-11-20T06:22:18;94251.13;;;17.09;68.97
24280;BME280;12395;42.808;23.408;2022-11-20T06:24:44;94236.41;;;17.11;70.32
24280;BME280;12395;42.808;23.408;2022-11-20T06:27:09;94232.44;;;17.19;70.61
24280;BME280;12395;42.808;23.408;2022-11-20T06:29:34;94236.19;;;17.13;71.03
24280;BME280;12395;42.808;23.408;2022-11-20T06:32:00;94230.56;;;17.19;71.11
24280;BME280;12395;42.808;23.408;2022-11-20T06:34:26;94223.81;;;17.07;71.01
24280;BME280;12395;42.808;23.408;2022-11-20T06:36:51;94227.06;;;17.14;71.22
24280;BME280;12395;42.808;23.408;2022-11-20T06:39:17;94234.84;;;17.20;70.90
24280;BME280;12395;42.808;23.408;2022-11-20T06:41:42;94243.66;;;17.16;70.78
24280;BME280;12395;42.808;23.408;2022-11-20T06:44:07;94252.78;;;17.25;70.82
24280;BME280;12395;42.808;23.408;2022-11-20T06:46:33;94265.09;;;17.26;70.88
24280;BME280;12395;42.808;23.408;2022-11-20T06:48:59;94265.41;;;17.29;69.77
24280;BME280;12395;42.808;23.408;2022-11-20T06:51:25;94272.63;;;17.34;70.03
24280;BME280;12395;42.808;23.408;2022-11-20T06:53:50;94270.75;;;17.39;69.54
24280;BME280;12395;42.808;23.408;2022-11-20T06:56:16;94274.00;;;17.36;69.91
24280;BME280;12395;42.808;23.408;2022-11-20T06:58:41;94263.56;;;17.45;68.65
24280;BME280;12395;42.808;23.408;2022-11-20T07:01:10;94291.97;;;17.56;67.25
24280;BME280;12395;42.808;23.408;2022-11-20T07:03:36;94267.88;;;17.51;69.02
24280;BME280;12395;42.808;23.408;2022-11-20T07:06:02;94277.53;;;17.57;70.00
24280;BME280;12395;42.808;23.408;2022-11-20T07:08:28;94256.91;;;17.57;71.30
24280;BME280;12395;42.808;23.408;2022-11-20T07:10:57;94284.25;;;17.59;71.82
24280;BME280;12395;42.808;23.408;2022-11-20T07:13:23;94304.84;;;17.54;71.89
24280;BME280;12395;42.808;23.408;2022-11-20T07:15:49;94286.03;;;17.39;73.36
24280;BME280;12395;42.808;23.408;2022-11-20T07:18:14;94299.44;;;17.44;74.03
24280;BME280;12395;42.808;23.408;2022-11-20T07:20:40;94292.97;;;17.35;75.19
24280;BME280;12395;42.808;23.408;2022-11-20T07:23:05;94301.00;;;17.35;74.81
24280;BME280;12395;42.808;23.408;2022-11-20T07:25:30;94321.09;;;17.37;75.80
24280;BME280;12395;42.808;23.408;2022-11-20T07:27:59;94337.41;;;17.31;76.16
24280;BME280;12395;42.808;23.408;2022-11-20T07:30:27;94339.03;;;17.32;78.17
24280;BME280;12395;42.808;23.408;2022-11-20T07:32:53;94323.97;;;17.16;81.44
24280;BME280;12395;42.808;23.408;2022-11-20T07:35:19;94311.63;;;17.10;81.44
24280;BME280;12395;42.808;23.408;2022-11-20T07:37:44;94303.53;;;16.94;82.43
24280;BME280;12395;42.808;23.408;2022-11-20T07:40:12;94306.44;;;16.88;83.10
24280;BME280;12395;42.808;23.408;2022-11-20T07:42:37;94299.19;;;16.83;83.36
24280;BME280;12395;42.808;23.408;2022-11-20T07:45:02;94301.56;;;16.75;83.23
24280;BME280;12395;42.808;23.408;2022-11-20T07:47:28;94305.59;;;16.77;84.86
24280;BME280;12395;42.808;23.408;2022-11-20T07:49:53;94297.03;;;16.75;82.61
24280;BME280;12395;42.808;23.408;2022-11-20T07:52:19;94294.91;;;16.77;85.83
24280;BME280;12395;42.808;23.408;2022-11-20T07:54:44;94297.03;;;16.75;83.40
24280;BME280;12395;42.808;23.408;2022-11-20T07:57:09;94291.09;;;16.68;85.63
24280;BME280;12395;42.808;23.408;2022-11-20T07:59:35;94304.22;;;16.70;85.45
24280;BME280;12395;42.808;23.408;2022-11-20T08:02:01;94281.16;;;16.64;86.22
24280;BME280;12395;42.808;23.408;2022-11-20T08:04:26;94304.19;;;16.65;87.24
24280;BME280;12395;42.808;23.408;2022-11-20T08:06:52;94299.88;;;16.59;87.29
24280;BME280;12395;42.808;23.408;2022-11-20T08:09:18;94291.56;;;16.55;87.31
24280;BME280;12395;42.808;23.408;2022-11-20T08:11:43;94306.59;;;16.61;86.72
24280;BME280;12395;42.808;23.408;2022-11-20T08:14:27;94291.81;;;16.54;87.34
24280;BME280;12395;42.808;23.408;2022-11-20T08:16:53;94296.13;;;16.55;86.82
24280;BME280;12395;42.808;23.408;2022-11-20T08:19:18;94294.69;;;16.47;87.22
24280;BME280;12395;42.808;23.408;2022-11-20T08:21:44;94309.78;;;16.58;87.75
24280;BME280;12395;42.808;23.408;2022-11-20T08:24:10;94304.47;;;16.63;87.84
24280;BME280;12395;42.808;23.408;2022-11-20T08:26:37;94314.06;;;16.64;90.38
24280;BME280;12395;42.808;23.408;2022-11-20T08:29:03;94315.81;;;16.49;92.93
24280;BME280;12395;42.808;23.408;2022-11-20T08:31:29;94288.91;;;16.23;94.02
24280;BME280;12395;42.808;23.408;2022-11-20T08:33:55;94293.94;;;16.15;94.21
24280;BME280;12395;42.808;23.408;2022-11-20T08:36:22;94295.78;;;16.14;94.45
24280;BME280;12395;42.808;23.408;2022-11-20T08:38:48;94305.97;;;16.17;91.51
24280;BME280;12395;42.808;23.408;2022-11-20T08:41:14;94338.88;;;16.18;94.69
24280;BME280;12395;42.808;23.408;2022-11-20T08:43:50;94314.16;;;16.06;94.54
24280;BME280;12395;42.808;23.408;2022-11-20T08:46:16;94296.47;;;15.95;94.49
24280;BME280;12395;42.808;23.408;2022-11-20T08:48:42;94307.38;;;15.93;92.51
24280;BME280;12395;42.808;23.408;2022-11-20T08:51:08;94308.75;;;15.96;92.59
24280;BME280;12395;42.808;23.408;2022-11-20T08:53:33;94325.88;;;16.00;95.67
24280;BME280;12395;42.808;23.408;2022-11-20T08:55:59;94283.69;;;15.70;94.84
24280;BME280;12395;42.808;23.408;2022-11-20T08:58:25;94322.56;;;15.88;96.63
24280;BME280;12395;42.808;23.408;2022-11-20T09:00:50;94346.13;;;15.91;97.52
24280;BME280;12395;42.808;23.408;2022-11-20T09:03:16;94379.13;;;15.80;99.59
24280;BME280;12395;42.808;23.408;2022-11-20T09:05:41;94357.63;;;15.65;100.00
24280;BME280;12395;42.808;23.408;2022-11-20T09:08:07;94369.13;;;15.43;100.00
24280;BME280;12395;42.808;23.408;2022-11-20T09:10:33;94367.63;;;15.31;100.00
24280;BME280;12395;42.808;23.408;2022-11-20T09:12:58;94357.16;;;15.29;100.00
24280;BME280;12395;42.808;23.408;2022-11-20T09:15:25;94369.31;;;15.42;97.50
24280;BME280;12395;42.808;23.408;2022-11-20T09:17:55;94374.50;;;15.49;97.19
24280;BME280;12395;42.808;23.408;2022-11-20T09:20:21;94376.25;;;15.60;96.30
24280;BME280;12395;42.808;23.408;2022-11-20T09:22:47;94355.59;;;15.50;97.31
24280;BME280;12395;42.808;23.408;2022-11-20T09:25:12;94362.28;;;15.53;99.54
24280;BME280;12395;42.808;23.408;2022-11-20T09:27:37;94353.16;;;15.49;100.00
24280;BME280;12395;42.808;23.408;2022-11-20T09:30:03;94368.38;;;15.48;100.00
24280;BME280;12395;42.808;23.408;2022-11-20T09:32:29;94363.78;;;15.43;100.00
24280;BME280;12395;42.808;23.408;2022-11-20T09:34:54;94373.66;;;15.43;100.00
24280;BME280;12395;42.808;23.408;2022-11-20T09:37:20;94368.78;;;15.40;100.00
24280;BME280;12395;42.808;23.408;2022-11-20T09:39:45;94376.56;;;15.41;100.00
24280;BME280;12395;42.808;23.408;2022-11-20T09:45:05;94357.88;;;15.41;100.00
24280;BME280;12395;42.808;23.408;2022-11-20T09:47:54;94356.16;;;15.35;100.00
24280;BME280;12395;42.808;23.408;2022-11-20T09:50:45;94354.28;;;15.31;100.00
24280;BME280;12395;42.808;23.408;2022-11-20T09:53:33;94342.72;;;15.25;100.00
24280;BME280;12395;42.808;23.408;2022-11-20T09:56:02;94343.78;;;15.24;100.00
24280;BME280;12395;42.808;23.408;2022-11-20T09:58:33;94321.81;;;15.17;100.00
24280;BME280;12395;42.808;23.408;2022-11-20T10:01:09;94299.47;;;15.23;100.00
24280;BME280;12395;42.808;23.408;2022-11-20T10:03:41;94301.88;;;15.25;100.00
24280;BME280;12395;42.808;23.408;2022-11-20T10:06:13;94295.94;;;15.18;100.00
24280;BME280;12395;42.808;23.408;2022-11-20T10:08:45;94299.47;;;15.23;100.00
24280;BME280;12395;42.808;23.408;2022-11-20T10:14:52;94309.88;;;15.25;100.00
24280;BME280;12395;42.808;23.408;2022-11-20T10:20:20;94298.91;;;15.21;100.00
24280;BME280;12395;42.808;23.408;2022-11-20T10:31:11;94274.50;;;14.86;100.00
24280;BME280;12395;42.808;23.408;2022-11-20T10:33:44;94256.13;;;14.90;100.00
24280;BME280;12395;42.808;23.408;2022-11-20T10:38:59;94254.88;;;14.97;100.00
24280;BME280;12395;42.808;23.408;2022-11-20T10:41:27;94279.03;;;15.07;100.00
24280;BME280;12395;42.808;23.408;2022-11-20T10:44:12;94284.03;;;15.04;100.00
24280;BME280;12395;42.808;23.408;2022-11-20T10:46:45;94270.66;;;14.99;100.00
24280;BME280;12395;42.808;23.408;2022-11-20T10:49:16;94289.56;;;14.97;100.00
24280;BME280;12395;42.808;23.408;2022-11-20T10:54:22;94308.47;;;14.96;100.00
24280;BME280;12395;42.808;23.408;2022-11-20T10:56:56;94302.78;;;14.87;100.00
24280;BME280;12395;42.808;23.408;2022-11-20T11:01:56;94276.44;;;14.69;100.00
24280;BME280;12395;42.808;23.408;2022-11-20T11:07:04;94241.44;;;14.44;100.00
24280;BME280;12395;42.808;23.408;2022-11-20T11:09:34;94266.50;;;14.26;100.00
24280;BME280;12395;42.808;23.408;2022-11-20T11:12:07;94310.88;;;14.21;100.00
24280;BME280;12395;42.808;23.408;2022-11-20T11:14:46;94314.63;;;14.20;100.00
24280;BME280;12395;42.808;23.408;2022-11-20T11:17:25;94333.19;;;14.15;100.00
24280;BME280;12395;42.808;23.408;2022-11-20T11:23:03;94375.00;;;13.69;100.00
24280;BME280;12395;42.808;23.408;2022-11-20T11:25:36;94368.22;;;13.34;100.00
24280;BME280;12395;42.808;23.408;2022-11-20T11:28:04;94346.78;;;13.12;100.00
24280;BME280;12395;42.808;23.408;2022-11-20T11:30:44;94335.94;;;13.02;100.00
24280;BME280;12395;42.808;23.408;2022-11-20T11:33:17;94309.38;;;12.90;100.00
24280;BME280;12395;42.808;23.408;2022-11-20T11:35:48;94327.16;;;12.90;100.00
24280;BME280;12395;42.808;23.408;2022-11-20T11:38:36;94323.34;;;12.86;100.00
24280;BME280;12395;42.808;23.408;2022-11-20T11:41:04;94323.50;;;12.79;100.00
24280;BME280;12395;42.808;23.408;2022-11-20T11:43:33;94346.34;;;12.92;100.00
24280;BME280;12395;42.808;23.408;2022-11-20T11:49:00;94370.63;;;12.95;100.00
24280;BME280;12395;42.808;23.408;2022-11-20T11:51:34;94371.41;;;12.96;100.00
24280;BME280;12395;42.808;23.408;2022-11-20T11:54:10;94368.53;;;12.97;100.00
24280;BME280;12395;42.808;23.408;2022-11-20T11:56:38;94375.69;;;12.97;100.00
24280;BME280;12395;42.808;23.408;2022-11-20T11:59:09;94372.59;;;12.88;100.00
24280;BME280;12395;42.808;23.408;2022-11-20T12:01:57;94378.31;;;12.57;100.00
24280;BME280;12395;42.808;23.408;2022-11-20T12:04:48;94360.75;;;12.33;100.00
24280;BME280;12395;42.808;23.408;2022-11-20T12:07:41;94368.50;;;12.23;100.00
24280;BME280;12395;42.808;23.408;2022-11-20T12:10:22;94365.84;;;12.23;100.00
24280;BME280;12395;42.808;23.408;2022-11-20T12:12:52;94383.47;;;12.17;100.00
24280;BME280;12395;42.808;23.408;2022-11-20T12:15:29;94375.63;;;12.11;100.00
24280;BME280;12395;42.808;23.408;2022-11-20T12:17:55;94356.34;;;12.04;100.00
24280;BME280;12395;42.808;23.408;2022-11-20T12:20:25;94347.66;;;12.08;100.00
24280;BME280;12395;42.808;23.408;2022-11-20T12:22:59;94351.16;;;12.09;100.00
24280;BME280;12395;42.808;23.408;2022-11-20T12:25:32;94350.56;;;12.07;100.00
24280;BME280;12395;42.808;23.408;2022-11-20T12:30:41;94355.44;;;12.10;100.00
24280;BME280;12395;42.808;23.408;2022-11-20T12:41:22;94357.50;;;12.19;100.00
24280;BME280;12395;42.808;23.408;2022-11-20T12:50:51;94335.69;;;12.17;100.00
24280;BME280;12395;42.808;23.408;2022-11-20T12:56:39;94311.09;;;11.99;100.00
24280;BME280;12395;42.808;23.408;2022-11-20T13:05:47;94297.34;;;11.90;100.00
24280;BME280;12395;42.808;23.408;2022-11-20T13:08:37;94315.00;;;11.96;100.00
24280;BME280;12395;42.808;23.408;2022-11-20T13:11:09;94306.59;;;11.99;100.00
24280;BME280;12395;42.808;23.408;2022-11-20T13:16:33;94275.41;;;12.06;100.00
24280;BME280;12395;42.808;23.408;2022-11-20T13:19:05;94274.97;;;12.09;100.00
24280;BME280;12395;42.808;23.408;2022-11-20T13:21:40;94273.00;;;12.16;100.00
24280;BME280;12395;42.808;23.408;2022-11-20T13:24:07;94272.06;;;12.22;100.00
24280;BME280;12395;42.808;23.408;2022-11-20T13:26:33;94287.53;;;12.25;100.00
24280;BME280;12395;42.808;23.408;2022-11-20T13:29:11;94279.81;;;12.12;100.00
24280;BME280;12395;42.808;23.408;2022-11-20T13:31:41;94265.38;;;12.08;100.00
24280;BME280;12395;42.808;23.408;2022-11-20T13:34:12;94265.72;;;12.12;100.00
24280;BME280;12395;42.808;23.408;2022-11-20T13:36:49;94261.00;;;12.14;100.00
24280;BME280;12395;42.808;23.408;2022-11-20T13:39:27;94256.00;;;12.17;100.00
24280;BME280;12395;42.808;23.408;2022-11-20T13:42:01;94254.28;;;12.23;100.00
24280;BME280;12395;42.808;23.408;2022-11-20T13:44:34;94252.53;;;12.28;100.00
24280;BME280;12395;42.808;23.408;2022-11-20T13:47:00;94221.63;;;12.22;100.00
24280;BME280;12395;42.808;23.408;2022-11-20T13:49:38;94226.44;;;12.25;100.00
24280;BME280;12395;42.808;23.408;2022-11-20T13:54:58;94238.31;;;12.34;100.00
24280;BME280;12395;42.808;23.408;2022-11-20T14:00:16;94251.59;;;12.46;100.00
24280;BME280;12395;42.808;23.408;2022-11-20T14:02:43;94245.72;;;12.44;100.00
24280;BME280;12395;42.808;23.408;2022-11-20T14:05:23;94235.88;;;12.45;100.00
24280;BME280;12395;42.808;23.408;2022-11-20T14:07:50;94232.63;;;12.43;100.00